sensor_id;sensor_type;location;lat;lon;timestamp;temperature;humidity
67586;SHT31;55785;47.946;20.540;2023-07-24T00:01:47;17.28;82.31
67586;SHT31;55785;47.946;20.540;2023-07-24T00:04:13;17.27;82.34
67586;SHT31;55785;47.946;20.540;2023-07-24T00:06:38;17.24;82.43
67586;SHT31;55785;47.946;20.540;2023-07-24T00:09:03;17.26;82.48
67586;SHT31;55785;47.946;20.540;2023-07-24T00:11:29;17.26;82.51
67586;SHT31;55785;47.946;20.540;2023-07-24T00:13:54;17.27;82.44
67586;SHT31;55785;47.946;20.540;2023-07-24T00:16:19;17.28;82.47
67586;SHT31;55785;47.946;20.540;2023-07-24T00:18:45;17.30;82.40
67586;SHT31;55785;47.946;20.540;2023-07-24T00:21:10;17.32;82.51
67586;SHT31;55785;47.946;20.540;2023-07-24T00:23:36;17.34;82.46
67586;SHT31;55785;47.946;20.540;2023-07-24T00:26:01;17.32;82.36
67586;SHT31;55785;47.946;20.540;2023-07-24T00:28:27;17.34;82.39
67586;SHT31;55785;47.946;20.540;2023-07-24T00:30:52;17.37;82.38
67586;SHT31;55785;47.946;20.540;2023-07-24T00:33:17;17.38;82.12
67586;SHT31;55785;47.946;20.540;2023-07-24T00:35:43;17.45;82.07
67586;SHT31;55785;47.946;20.540;2023-07-24T00:38:08;17.47;82.05
67586;SHT31;55785;47.946;20.540;2023-07-24T00:40:33;17.47;82.13
67586;SHT31;55785;47.946;20.540;2023-07-24T00:42:59;17.48;81.93
67586;SHT31;55785;47.946;20.540;2023-07-24T00:45:24;17.49;81.94
67586;SHT31;55785;47.946;20.540;2023-07-24T00:47:50;17.49;82.23
67586;SHT31;55785;47.946;20.540;2023-07-24T00:50:16;17.49;81.96
67586;SHT31;55785;47.946;20.540;2023-07-24T00:52:42;17.48;81.85
67586;SHT31;55785;47.946;20.540;2023-07-24T00:55:09;17.49;81.92
67586;SHT31;55785;47.946;20.540;2023-07-24T00:57:35;17.51;81.93
67586;SHT31;55785;47.946;20.540;2023-07-24T01:00:01;17.49;82.00
67586;SHT31;55785;47.946;20.540;2023-07-24T01:02:27;17.47;82.31
67586;SHT31;55785;47.946;20.540;2023-07-24T01:04:52;17.44;82.24
67586;SHT31;55785;47.946;20.540;2023-07-24T01:07:18;17.41;82.08
67586;SHT31;55785;47.946;20.540;2023-07-24T01:09:43;17.44;82.47
67586;SHT31;55785;47.946;20.540;2023-07-24T01:15:30;17.39;82.56
67586;SHT31;55785;47.946;20.540;2023-07-24T01:18:01;17.37;82.64
67586;SHT31;55785;47.946;20.540;2023-07-24T01:20:29;17.37;82.76
67586;SHT31;55785;47.946;20.540;2023-07-24T01:23:22;17.38;83.01
67586;SHT31;55785;47.946;20.540;2023-07-24T01:25:58;17.37;83.14
67586;SHT31;55785;47.946;20.540;2023-07-24T01:28:24;17.30;83.41
67586;SHT31;55785;47.946;20.540;2023-07-24T01:30:50;17.30;83.26
67586;SHT31;55785;47.946;20.540;2023-07-24T01:33:15;17.30;83.12
67586;SHT31;55785;47.946;20.540;2023-07-24T01:35:42;17.26;83.38
67586;SHT31;55785;47.946;20.540;2023-07-24T01:38:09;17.28;83.32
67586;SHT31;55785;47.946;20.540;2023-07-24T01:40:35;17.27;83.39
67586;SHT31;55785;47.946;20.540;2023-07-24T01:43:01;17.23;83.53
67586;SHT31;55785;47.946;20.540;2023-07-24T01:45:26;17.20;83.70
67586;SHT31;55785;47.946;20.540;2023-07-24T01:47:51;17.09;83.78
67586;SHT31;55785;47.946;20.540;2023-07-24T01:50:17;17.03;83.96
67586;SHT31;55785;47.946;20.540;2023-07-24T01:52:42;16.96;84.18
67586;SHT31;55785;47.946;20.540;2023-07-24T01:55:08;16.96;84.14
67586;SHT31;55785;47.946;20.540;2023-07-24T01:57:33;16.97;84.31
67586;SHT31;55785;47.946;20.540;2023-07-24T01:59:58;17.00;83.94
67586;SHT31;55785;47.946;20.540;2023-07-24T02:02:24;17.02;83.76
67586;SHT31;55785;47.946;20.540;2023-07-24T02:04:49;17.07;84.08
67586;SHT31;55785;47.946;20.540;2023-07-24T02:07:14;17.02;84.21
67586;SHT31;55785;47.946;20.540;2023-07-24T02:09:40;16.96;84.60
67586;SHT31;55785;47.946;20.540;2023-07-24T02:12:06;16.91;84.75
67586;SHT31;55785;47.946;20.540;2023-07-24T02:14:31;16.86;84.83
67586;SHT31;55785;47.946;20.540;2023-07-24T02:16:56;16.82;84.72
67586;SHT31;55785;47.946;20.540;2023-07-24T02:19:22;16.80;84.90
67586;SHT31;55785;47.946;20.540;2023-07-24T02:21:47;16.75;85.13
67586;SHT31;55785;47.946;20.540;2023-07-24T02:24:12;16.72;85.38
67586;SHT31;55785;47.946;20.540;2023-07-24T02:26:38;16.65;85.60
67586;SHT31;55785;47.946;20.540;2023-07-24T02:29:03;16.61;85.75
67586;SHT31;55785;47.946;20.540;2023-07-24T02:31:28;16.56;85.85
67586;SHT31;55785;47.946;20.540;2023-07-24T02:33:54;16.52;86.03
67586;SHT31;55785;47.946;20.540;2023-07-24T02:36:19;16.56;86.16
67586;SHT31;55785;47.946;20.540;2023-07-24T02:38:45;16.58;86.03
67586;SHT31;55785;47.946;20.540;2023-07-24T02:41:10;16.56;86.04
67586;SHT31;55785;47.946;20.540;2023-07-24T02:43:35;16.56;86.14
67586;SHT31;55785;47.946;20.540;2023-07-24T02:46:01;16.58;86.06
67586;SHT31;55785;47.946;20.540;2023-07-24T02:48:27;16.62;86.09
67586;SHT31;55785;47.946;20.540;2023-07-24T02:50:52;16.63;86.11
67586;SHT31;55785;47.946;20.540;2023-07-24T02:53:18;16.68;86.06
67586;SHT31;55785;47.946;20.540;2023-07-24T02:55:43;16.62;86.07
67586;SHT31;55785;47.946;20.540;2023-07-24T02:58:09;16.58;86.09
67586;SHT31;55785;47.946;20.540;2023-07-24T03:00:34;16.56;86.02
67586;SHT31;55785;47.946;20.540;2023-07-24T03:02:59;16.58;85.95
67586;SHT31;55785;47.946;20.540;2023-07-24T03:05:25;16.56;86.07
67586;SHT31;55785;47.946;20.540;2023-07-24T03:07:50;16.53;86.17
67586;SHT31;55785;47.946;20.540;2023-07-24T03:10:15;16.49;86.25
67586;SHT31;55785;47.946;20.540;2023-07-24T03:12:41;16.44;86.43
67586;SHT31;55785;47.946;20.540;2023-07-24T03:15:06;16.45;86.56
67586;SHT31;55785;47.946;20.540;2023-07-24T03:17:32;16.44;86.59
67586;SHT31;55785;47.946;20.540;2023-07-24T03:19:58;16.42;86.67
67586;SHT31;55785;47.946;20.540;2023-07-24T03:22:23;16.42;86.73
67586;SHT31;55785;47.946;20.540;2023-07-24T03:24:48;16.45;86.71
67586;SHT31;55785;47.946;20.540;2023-07-24T03:27:14;16.47;86.81
67586;SHT31;55785;47.946;20.540;2023-07-24T03:29:39;16.49;86.76
67586;SHT31;55785;47.946;20.540;2023-07-24T03:32:04;16.56;86.77
67586;SHT31;55785;47.946;20.540;2023-07-24T03:34:30;16.58;86.89
67586;SHT31;55785;47.946;20.540;2023-07-24T03:36:55;16.61;86.91
67586;SHT31;55785;47.946;20.540;2023-07-24T03:39:20;16.62;86.77
67586;SHT31;55785;47.946;20.540;2023-07-24T03:41:46;16.68;86.68
67586;SHT31;55785;47.946;20.540;2023-07-24T03:44:11;16.69;86.52
67586;SHT31;55785;47.946;20.540;2023-07-24T03:46:36;16.77;86.36
67586;SHT31;55785;47.946;20.540;2023-07-24T03:49:02;16.77;86.43
67586;SHT31;55785;47.946;20.540;2023-07-24T03:51:27;16.83;86.36
67586;SHT31;55785;47.946;20.540;2023-07-24T03:53:53;16.89;86.24
67586;SHT31;55785;47.946;20.540;2023-07-24T03:56:18;16.94;86.18
67586;SHT31;55785;47.946;20.540;2023-07-24T03:58:44;16.99;86.16
67586;SHT31;55785;47.946;20.540;2023-07-24T04:01:09;17.07;86.09
67586;SHT31;55785;47.946;20.540;2023-07-24T04:03:35;17.14;86.09
67586;SHT31;55785;47.946;20.540;2023-07-24T04:06:01;17.16;85.95
67586;SHT31;55785;47.946;20.540;2023-07-24T04:08:26;17.21;85.85
67586;SHT31;55785;47.946;20.540;2023-07-24T04:10:51;17.30;85.92
67586;SHT31;55785;47.946;20.540;2023-07-24T04:13:17;17.37;85.64
67586;SHT31;55785;47.946;20.540;2023-07-24T04:15:42;17.48;85.64
67586;SHT31;55785;47.946;20.540;2023-07-24T04:18:07;17.48;85.02
67586;SHT31;55785;47.946;20.540;2023-07-24T04:20:33;17.52;85.38
67586;SHT31;55785;47.946;20.540;2023-07-24T04:22:58;17.59;85.11
67586;SHT31;55785;47.946;20.540;2023-07-24T04:25:24;17.54;84.84
67586;SHT31;55785;47.946;20.540;2023-07-24T04:27:49;17.52;84.84
67586;SHT31;55785;47.946;20.540;2023-07-24T04:30:14;17.47;85.22
67586;SHT31;55785;47.946;20.540;2023-07-24T04:32:40;17.47;85.42
67586;SHT31;55785;47.946;20.540;2023-07-24T04:35:05;17.45;85.57
67586;SHT31;55785;47.946;20.540;2023-07-24T04:37:31;17.48;85.80
67586;SHT31;55785;47.946;20.540;2023-07-24T04:39:56;17.54;85.73
67586;SHT31;55785;47.946;20.540;2023-07-24T04:42:22;17.62;85.85
67586;SHT31;55785;47.946;20.540;2023-07-24T04:44:47;17.65;85.48
67586;SHT31;55785;47.946;20.540;2023-07-24T04:47:13;17.74;85.56
67586;SHT31;55785;47.946;20.540;2023-07-24T04:49:38;17.81;85.87
67586;SHT31;55785;47.946;20.540;2023-07-24T04:52:04;17.85;85.67
67586;SHT31;55785;47.946;20.540;2023-07-24T04:54:29;17.93;85.86
67586;SHT31;55785;47.946;20.540;2023-07-24T04:56:54;18.07;85.73
67586;SHT31;55785;47.946;20.540;2023-07-24T04:59:20;18.13;85.12
67586;SHT31;55785;47.946;20.540;2023-07-24T05:01:45;18.24;84.91
67586;SHT31;55785;47.946;20.540;2023-07-24T05:04:10;18.40;84.91
67586;SHT31;55785;47.946;20.540;2023-07-24T05:06:36;18.57;84.39
67586;SHT31;55785;47.946;20.540;2023-07-24T05:09:01;18.72;83.66
67586;SHT31;55785;47.946;20.540;2023-07-24T05:11:27;18.82;83.56
67586;SHT31;55785;47.946;20.540;2023-07-24T05:13:52;18.99;83.46
67586;SHT31;55785;47.946;20.540;2023-07-24T05:16:18;19.15;83.52
67586;SHT31;55785;47.946;20.540;2023-07-24T05:18:43;19.30;83.92
67586;SHT31;55785;47.946;20.540;2023-07-24T05:21:08;19.42;83.41
67586;SHT31;55785;47.946;20.540;2023-07-24T05:23:34;19.49;82.81
67586;SHT31;55785;47.946;20.540;2023-07-24T05:26:00;19.63;82.70
67586;SHT31;55785;47.946;20.540;2023-07-24T05:28:27;19.74;82.43
67586;SHT31;55785;47.946;20.540;2023-07-24T05:30:52;19.87;82.24
67586;SHT31;55785;47.946;20.540;2023-07-24T05:33:18;20.05;82.70
67586;SHT31;55785;47.946;20.540;2023-07-24T05:35:43;20.12;81.64
67586;SHT31;55785;47.946;20.540;2023-07-24T05:38:09;20.21;80.69
67586;SHT31;55785;47.946;20.540;2023-07-24T05:40:34;20.28;80.77
67586;SHT31;55785;47.946;20.540;2023-07-24T05:43:00;20.36;80.62
67586;SHT31;55785;47.946;20.540;2023-07-24T05:45:26;20.45;80.80
67586;SHT31;55785;47.946;20.540;2023-07-24T05:47:52;20.57;81.84
67586;SHT31;55785;47.946;20.540;2023-07-24T05:50:17;20.75;81.19
67586;SHT31;55785;47.946;20.540;2023-07-24T05:52:42;20.86;81.17
67586;SHT31;55785;47.946;20.540;2023-07-24T05:55:08;20.91;80.41
67586;SHT31;55785;47.946;20.540;2023-07-24T05:57:33;21.01;79.37
67586;SHT31;55785;47.946;20.540;2023-07-24T05:59:59;21.06;79.46
67586;SHT31;55785;47.946;20.540;2023-07-24T06:02:24;21.20;80.41
67586;SHT31;55785;47.946;20.540;2023-07-24T06:04:49;21.41;81.80
67586;SHT31;55785;47.946;20.540;2023-07-24T06:07:15;21.59;79.29
67586;SHT31;55785;47.946;20.540;2023-07-24T06:09:40;21.85;79.86
67586;SHT31;55785;47.946;20.540;2023-07-24T06:12:06;21.93;78.24
67586;SHT31;55785;47.946;20.540;2023-07-24T06:14:31;21.94;77.93
67586;SHT31;55785;47.946;20.540;2023-07-24T06:16:56;21.97;78.46
67586;SHT31;55785;47.946;20.540;2023-07-24T06:19:22;22.02;78.97
67586;SHT31;55785;47.946;20.540;2023-07-24T06:21:47;22.07;78.30
67586;SHT31;55785;47.946;20.540;2023-07-24T06:24:12;22.06;77.55
67586;SHT31;55785;47.946;20.540;2023-07-24T06:26:38;22.13;78.46
67586;SHT31;55785;47.946;20.540;2023-07-24T06:29:04;22.29;77.94
67586;SHT31;55785;47.946;20.540;2023-07-24T06:31:29;22.45;78.56
67586;SHT31;55785;47.946;20.540;2023-07-24T06:33:55;22.54;76.78
67586;SHT31;55785;47.946;20.540;2023-07-24T06:36:20;22.54;76.59
67586;SHT31;55785;47.946;20.540;2023-07-24T06:38:45;22.54;76.39
67586;SHT31;55785;47.946;20.540;2023-07-24T06:41:11;22.55;77.00
67586;SHT31;55785;47.946;20.540;2023-07-24T06:43:36;22.61;77.62
67586;SHT31;55785;47.946;20.540;2023-07-24T06:46:01;22.62;76.67
67586;SHT31;55785;47.946;20.540;2023-07-24T06:48:27;22.71;76.75
67586;SHT31;55785;47.946;20.540;2023-07-24T06:50:52;22.73;76.98
67586;SHT31;55785;47.946;20.540;2023-07-24T06:53:17;22.82;77.25
67586;SHT31;55785;47.946;20.540;2023-07-24T06:55:43;22.87;76.77
67586;SHT31;55785;47.946;20.540;2023-07-24T06:58:08;22.99;77.25
67586;SHT31;55785;47.946;20.540;2023-07-24T07:00:33;23.20;78.21
67586;SHT31;55785;47.946;20.540;2023-07-24T07:02:59;23.27;76.36
67586;SHT31;55785;47.946;20.540;2023-07-24T07:05:24;23.30;76.59
67586;SHT31;55785;47.946;20.540;2023-07-24T07:07:49;23.29;76.31
67586;SHT31;55785;47.946;20.540;2023-07-24T07:10:15;23.39;75.30
67586;SHT31;55785;47.946;20.540;2023-07-24T07:12:40;23.50;76.45
67586;SHT31;55785;47.946;20.540;2023-07-24T07:15:06;23.49;76.01
67586;SHT31;55785;47.946;20.540;2023-07-24T07:17:32;23.54;75.86
67586;SHT31;55785;47.946;20.540;2023-07-24T07:19:57;23.67;76.03
67586;SHT31;55785;47.946;20.540;2023-07-24T07:22:22;23.85;76.29
67586;SHT31;55785;47.946;20.540;2023-07-24T07:24:48;24.05;75.71
67586;SHT31;55785;47.946;20.540;2023-07-24T07:27:14;24.25;76.10
67586;SHT31;55785;47.946;20.540;2023-07-24T07:29:39;24.32;74.80
67586;SHT31;55785;47.946;20.540;2023-07-24T07:32:05;24.39;75.96
67586;SHT31;55785;47.946;20.540;2023-07-24T07:34:30;24.42;75.63
67586;SHT31;55785;47.946;20.540;2023-07-24T07:36:56;24.53;74.34
67586;SHT31;55785;47.946;20.540;2023-07-24T07:39:21;24.49;73.86
67586;SHT31;55785;47.946;20.540;2023-07-24T07:41:46;24.59;75.01
67586;SHT31;55785;47.946;20.540;2023-07-24T07:44:12;24.56;74.76
67586;SHT31;55785;47.946;20.540;2023-07-24T07:46:37;24.60;75.16
67586;SHT31;55785;47.946;20.540;2023-07-24T07:49:03;24.64;75.17
67586;SHT31;55785;47.946;20.540;2023-07-24T07:51:28;24.76;76.35
67586;SHT31;55785;47.946;20.540;2023-07-24T07:53:53;24.81;74.23
67586;SHT31;55785;47.946;20.540;2023-07-24T07:56:19;24.86;74.90
67586;SHT31;55785;47.946;20.540;2023-07-24T07:58:44;24.87;75.40
67586;SHT31;55785;47.946;20.540;2023-07-24T08:01:09;24.90;75.91
67586;SHT31;55785;47.946;20.540;2023-07-24T08:03:35;24.97;75.70
67586;SHT31;55785;47.946;20.540;2023-07-24T08:06:00;24.94;73.46
67586;SHT31;55785;47.946;20.540;2023-07-24T08:08:26;25.01;75.39
67586;SHT31;55785;47.946;20.540;2023-07-24T08:10:51;25.08;74.22
67586;SHT31;55785;47.946;20.540;2023-07-24T08:13:16;25.15;75.45
67586;SHT31;55785;47.946;20.540;2023-07-24T08:15:42;25.20;73.50
67586;SHT31;55785;47.946;20.540;2023-07-24T08:18:07;25.24;73.80
67586;SHT31;55785;47.946;20.540;2023-07-24T08:20:35;25.52;76.57
67586;SHT31;55785;47.946;20.540;2023-07-24T08:23:01;25.69;74.68
67586;SHT31;55785;47.946;20.540;2023-07-24T08:25:26;25.83;73.53
67586;SHT31;55785;47.946;20.540;2023-07-24T08:27:51;25.99;75.45
67586;SHT31;55785;47.946;20.540;2023-07-24T08:30:17;26.01;72.40
67586;SHT31;55785;47.946;20.540;2023-07-24T08:32:43;26.06;72.75
67586;SHT31;55785;47.946;20.540;2023-07-24T08:35:08;26.01;72.23
67586;SHT31;55785;47.946;20.540;2023-07-24T08:37:34;26.13;72.03
67586;SHT31;55785;47.946;20.540;2023-07-24T08:39:59;26.26;72.67
67586;SHT31;55785;47.946;20.540;2023-07-24T08:42:25;26.37;71.79
67586;SHT31;55785;47.946;20.540;2023-07-24T08:44:51;26.55;70.64
67586;SHT31;55785;47.946;20.540;2023-07-24T08:47:18;26.59;70.77
67586;SHT31;55785;47.946;20.540;2023-07-24T08:49:44;26.69;69.67
67586;SHT31;55785;47.946;20.540;2023-07-24T08:52:11;26.79;71.34
67586;SHT31;55785;47.946;20.540;2023-07-24T08:54:37;26.76;71.92
67586;SHT31;55785;47.946;20.540;2023-07-24T08:57:06;26.91;70.16
67586;SHT31;55785;47.946;20.540;2023-07-24T08:59:31;26.99;68.75
67586;SHT31;55785;47.946;20.540;2023-07-24T09:01:56;27.07;68.88
67586;SHT31;55785;47.946;20.540;2023-07-24T09:04:22;27.19;68.61
67586;SHT31;55785;47.946;20.540;2023-07-24T09:06:48;27.23;69.80
67586;SHT31;55785;47.946;20.540;2023-07-24T09:09:14;27.34;70.24
67586;SHT31;55785;47.946;20.540;2023-07-24T09:11:50;27.37;68.64
67586;SHT31;55785;47.946;20.540;2023-07-24T09:14:27;27.53;69.82
67586;SHT31;55785;47.946;20.540;2023-07-24T09:17:06;27.51;68.60
67586;SHT31;55785;47.946;20.540;2023-07-24T09:19:32;27.64;68.94
67586;SHT31;55785;47.946;20.540;2023-07-24T09:22:16;27.65;68.34
67586;SHT31;55785;47.946;20.540;2023-07-24T09:24:52;27.42;66.93
67586;SHT31;55785;47.946;20.540;2023-07-24T09:27:17;27.46;68.68
67586;SHT31;55785;47.946;20.540;2023-07-24T09:29:43;27.53;68.07
67586;SHT31;55785;47.946;20.540;2023-07-24T09:32:18;27.64;66.98
67586;SHT31;55785;47.946;20.540;2023-07-24T09:34:44;27.72;68.60
67586;SHT31;55785;47.946;20.540;2023-07-24T09:37:09;27.88;67.39
67586;SHT31;55785;47.946;20.540;2023-07-24T09:39:35;27.99;66.56
67586;SHT31;55785;47.946;20.540;2023-07-24T09:42:04;28.09;65.36
67586;SHT31;55785;47.946;20.540;2023-07-24T09:44:33;28.31;67.46
67586;SHT31;55785;47.946;20.540;2023-07-24T09:46:58;28.22;66.10
67586;SHT31;55785;47.946;20.540;2023-07-24T09:49:24;28.18;65.16
67586;SHT31;55785;47.946;20.540;2023-07-24T09:51:50;28.11;65.53
67586;SHT31;55785;47.946;20.540;2023-07-24T09:54:27;28.19;66.60
67586;SHT31;55785;47.946;20.540;2023-07-24T09:56:55;28.40;63.29
67586;SHT31;55785;47.946;20.540;2023-07-24T09:59:21;28.53;64.49
67586;SHT31;55785;47.946;20.540;2023-07-24T10:01:48;28.67;64.09
67586;SHT31;55785;47.946;20.540;2023-07-24T10:04:14;28.86;62.09
67586;SHT31;55785;47.946;20.540;2023-07-24T10:06:41;29.01;61.30
67586;SHT31;55785;47.946;20.540;2023-07-24T10:09:08;29.17;61.31
67586;SHT31;55785;47.946;20.540;2023-07-24T10:11:34;29.24;60.99
67586;SHT31;55785;47.946;20.540;2023-07-24T10:14:00;29.28;59.50
67586;SHT31;55785;47.946;20.540;2023-07-24T10:16:26;29.19;58.95
67586;SHT31;55785;47.946;20.540;2023-07-24T10:18:51;29.15;58.71
67586;SHT31;55785;47.946;20.540;2023-07-24T10:21:17;28.87;57.35
67586;SHT31;55785;47.946;20.540;2023-07-24T10:23:45;29.01;60.29
67586;SHT31;55785;47.946;20.540;2023-07-24T10:26:11;29.28;60.48
67586;SHT31;55785;47.946;20.540;2023-07-24T10:28:40;29.22;58.16
67586;SHT31;55785;47.946;20.540;2023-07-24T10:31:20;29.51;59.30
67586;SHT31;55785;47.946;20.540;2023-07-24T10:33:45;29.56;57.63
67586;SHT31;55785;47.946;20.540;2023-07-24T10:36:12;29.49;56.55
67586;SHT31;55785;47.946;20.540;2023-07-24T10:38:39;29.45;56.57
67586;SHT31;55785;47.946;20.540;2023-07-24T10:41:05;29.56;54.86
67586;SHT31;55785;47.946;20.540;2023-07-24T10:43:45;29.72;57.14
67586;SHT31;55785;47.946;20.540;2023-07-24T10:46:11;29.87;55.53
67586;SHT31;55785;47.946;20.540;2023-07-24T10:48:37;30.02;57.04
67586;SHT31;55785;47.946;20.540;2023-07-24T10:51:10;30.06;55.00
67586;SHT31;55785;47.946;20.540;2023-07-24T10:53:45;30.27;58.62
67586;SHT31;55785;47.946;20.540;2023-07-24T10:56:11;30.24;55.86
67586;SHT31;55785;47.946;20.540;2023-07-24T10:58:36;30.34;57.97
67586;SHT31;55785;47.946;20.540;2023-07-24T11:01:06;30.31;56.94
67586;SHT31;55785;47.946;20.540;2023-07-24T11:03:32;30.40;56.23
67586;SHT31;55785;47.946;20.540;2023-07-24T11:05:58;30.51;55.43
67586;SHT31;55785;47.946;20.540;2023-07-24T11:08:23;30.52;55.39
67586;SHT31;55785;47.946;20.540;2023-07-24T11:13:16;30.49;55.48
67586;SHT31;55785;47.946;20.540;2023-07-24T11:15:42;30.61;58.10
67586;SHT31;55785;47.946;20.540;2023-07-24T11:18:07;30.69;53.00
67586;SHT31;55785;47.946;20.540;2023-07-24T11:20:33;30.82;51.99
67586;SHT31;55785;47.946;20.540;2023-07-24T11:22:58;30.95;53.06
67586;SHT31;55785;47.946;20.540;2023-07-24T11:25:24;30.99;54.79
67586;SHT31;55785;47.946;20.540;2023-07-24T11:27:49;31.00;54.14
67586;SHT31;55785;47.946;20.540;2023-07-24T11:30:20;31.02;53.87
67586;SHT31;55785;47.946;20.540;2023-07-24T11:32:46;30.85;53.29
67586;SHT31;55785;47.946;20.540;2023-07-24T11:35:11;30.90;50.18
67586;SHT31;55785;47.946;20.540;2023-07-24T11:37:37;30.86;52.16
67586;SHT31;55785;47.946;20.540;2023-07-24T11:40:04;30.95;52.62
67586;SHT31;55785;47.946;20.540;2023-07-24T11:42:30;31.09;51.51
67586;SHT31;55785;47.946;20.540;2023-07-24T11:44:56;31.17;53.70
67586;SHT31;55785;47.946;20.540;2023-07-24T11:47:25;31.43;49.69
67586;SHT31;55785;47.946;20.540;2023-07-24T11:49:58;31.53;49.79
67586;SHT31;55785;47.946;20.540;2023-07-24T11:52:24;31.48;49.70
67586;SHT31;55785;47.946;20.540;2023-07-24T11:54:58;31.37;49.89
67586;SHT31;55785;47.946;20.540;2023-07-24T11:57:24;31.48;51.10
67586;SHT31;55785;47.946;20.540;2023-07-24T11:59:49;31.73;52.08
67586;SHT31;55785;47.946;20.540;2023-07-24T12:02:14;31.81;48.17
67586;SHT31;55785;47.946;20.540;2023-07-24T12:04:40;31.91;48.57
67586;SHT31;55785;47.946;20.540;2023-07-24T12:07:09;31.96;49.95
67586;SHT31;55785;47.946;20.540;2023-07-24T12:09:34;32.01;47.65
67586;SHT31;55785;47.946;20.540;2023-07-24T12:12:03;32.14;48.73
67586;SHT31;55785;47.946;20.540;2023-07-24T12:14:28;31.99;47.68
67586;SHT31;55785;47.946;20.540;2023-07-24T12:17:03;31.75;49.87
67586;SHT31;55785;47.946;20.540;2023-07-24T12:19:29;31.85;50.30
67586;SHT31;55785;47.946;20.540;2023-07-24T12:21:54;32.09;47.58
67586;SHT31;55785;47.946;20.540;2023-07-24T12:24:19;32.32;47.34
67586;SHT31;55785;47.946;20.540;2023-07-24T12:26:45;32.36;49.52
67586;SHT31;55785;47.946;20.540;2023-07-24T12:29:10;32.40;48.46
67586;SHT31;55785;47.946;20.540;2023-07-24T12:31:36;32.18;46.83
67586;SHT31;55785;47.946;20.540;2023-07-24T12:34:01;32.08;48.16
67586;SHT31;55785;47.946;20.540;2023-07-24T12:36:26;32.18;48.89
67586;SHT31;55785;47.946;20.540;2023-07-24T12:38:52;32.45;47.95
67586;SHT31;55785;47.946;20.540;2023-07-24T12:41:17;32.57;47.89
67586;SHT31;55785;47.946;20.540;2023-07-24T12:43:44;32.60;46.27
67586;SHT31;55785;47.946;20.540;2023-07-24T12:46:09;32.73;48.56
67586;SHT31;55785;47.946;20.540;2023-07-24T12:48:34;32.91;47.24
67586;SHT31;55785;47.946;20.540;2023-07-24T12:51:00;33.01;45.39
67586;SHT31;55785;47.946;20.540;2023-07-24T12:53:25;33.07;46.36
67586;SHT31;55785;47.946;20.540;2023-07-24T12:55:50;32.93;46.15
67586;SHT31;55785;47.946;20.540;2023-07-24T12:58:16;33.08;46.42
67586;SHT31;55785;47.946;20.540;2023-07-24T13:00:41;33.22;45.30
67586;SHT31;55785;47.946;20.540;2023-07-24T13:03:06;32.81;43.51
67586;SHT31;55785;47.946;20.540;2023-07-24T13:05:32;32.79;43.96
67586;SHT31;55785;47.946;20.540;2023-07-24T13:07:58;32.87;46.11
67586;SHT31;55785;47.946;20.540;2023-07-24T13:10:23;32.83;45.52
67586;SHT31;55785;47.946;20.540;2023-07-24T13:12:48;32.63;44.64
67586;SHT31;55785;47.946;20.540;2023-07-24T13:15:14;32.84;43.35
67586;SHT31;55785;47.946;20.540;2023-07-24T13:17:39;33.06;42.08
67586;SHT31;55785;47.946;20.540;2023-07-24T13:20:05;33.15;41.86
67586;SHT31;55785;47.946;20.540;2023-07-24T13:22:31;33.35;44.17
67586;SHT31;55785;47.946;20.540;2023-07-24T13:24:56;33.38;40.40
67586;SHT31;55785;47.946;20.540;2023-07-24T13:27:21;33.41;41.31
67586;SHT31;55785;47.946;20.540;2023-07-24T13:29:47;33.32;42.66
67586;SHT31;55785;47.946;20.540;2023-07-24T13:32:12;33.30;43.56
67586;SHT31;55785;47.946;20.540;2023-07-24T13:34:37;33.37;42.77
67586;SHT31;55785;47.946;20.540;2023-07-24T13:37:03;33.39;43.12
67586;SHT31;55785;47.946;20.540;2023-07-24T13:39:28;33.49;44.50
67586;SHT31;55785;47.946;20.540;2023-07-24T13:41:54;33.44;42.43
67586;SHT31;55785;47.946;20.540;2023-07-24T13:44:19;33.55;45.05
67586;SHT31;55785;47.946;20.540;2023-07-24T13:46:44;33.73;43.90
67586;SHT31;55785;47.946;20.540;2023-07-24T13:49:10;33.57;43.27
67586;SHT31;55785;47.946;20.540;2023-07-24T13:51:35;33.61;42.78
67586;SHT31;55785;47.946;20.540;2023-07-24T13:54:00;33.42;42.37
67586;SHT31;55785;47.946;20.540;2023-07-24T13:56:26;33.27;41.83
67586;SHT31;55785;47.946;20.540;2023-07-24T13:58:51;33.04;43.95
67586;SHT31;55785;47.946;20.540;2023-07-24T14:01:17;32.66;44.05
67586;SHT31;55785;47.946;20.540;2023-07-24T14:03:42;32.67;46.96
67586;SHT31;55785;47.946;20.540;2023-07-24T14:06:07;32.59;45.56
67586;SHT31;55785;47.946;20.540;2023-07-24T14:08:33;32.53;46.18
67586;SHT31;55785;47.946;20.540;2023-07-24T14:10:58;32.62;48.00
67586;SHT31;55785;47.946;20.540;2023-07-24T14:13:24;32.74;46.69
67586;SHT31;55785;47.946;20.540;2023-07-24T14:15:49;32.81;46.37
67586;SHT31;55785;47.946;20.540;2023-07-24T14:18:14;33.11;47.30
67586;SHT31;55785;47.946;20.540;2023-07-24T14:20:40;33.34;48.58
67586;SHT31;55785;47.946;20.540;2023-07-24T14:23:06;33.38;46.29
67586;SHT31;55785;47.946;20.540;2023-07-24T14:25:31;33.52;47.79
67586;SHT31;55785;47.946;20.540;2023-07-24T14:27:57;33.25;45.18
67586;SHT31;55785;47.946;20.540;2023-07-24T14:30:22;33.21;45.21
67586;SHT31;55785;47.946;20.540;2023-07-24T14:32:47;32.96;45.60
67586;SHT31;55785;47.946;20.540;2023-07-24T14:35:13;32.77;47.01
67586;SHT31;55785;47.946;20.540;2023-07-24T14:37:38;32.48;44.00
67586;SHT31;55785;47.946;20.540;2023-07-24T14:40:04;32.60;46.29
67586;SHT31;55785;47.946;20.540;2023-07-24T14:42:29;32.73;46.30
67586;SHT31;55785;47.946;20.540;2023-07-24T14:44:55;32.72;45.45
67586;SHT31;55785;47.946;20.540;2023-07-24T14:47:20;32.77;46.12
67586;SHT31;55785;47.946;20.540;2023-07-24T14:49:45;32.81;47.79
67586;SHT31;55785;47.946;20.540;2023-07-24T14:52:11;32.77;46.91
67586;SHT31;55785;47.946;20.540;2023-07-24T14:54:36;32.88;46.99
67586;SHT31;55785;47.946;20.540;2023-07-24T14:57:01;32.87;47.54
67586;SHT31;55785;47.946;20.540;2023-07-24T14:59:27;32.66;48.24
67586;SHT31;55785;47.946;20.540;2023-07-24T15:01:53;32.43;46.21
67586;SHT31;55785;47.946;20.540;2023-07-24T15:04:18;32.39;47.16
67586;SHT31;55785;47.946;20.540;2023-07-24T15:06:43;32.36;48.22
67586;SHT31;55785;47.946;20.540;2023-07-24T15:09:09;32.31;46.27
67586;SHT31;55785;47.946;20.540;2023-07-24T15:11:34;32.33;46.86
67586;SHT31;55785;47.946;20.540;2023-07-24T15:13:59;32.32;45.78